Skip Navigation LinksHome page > Weather > Current weather Skip Navigation Links

Current Weather

Chicago O'Hare Intl, Chicago

For information only: do not use for flight planning or navigation.
Latest weather
Observation time Thursday, October 19, 2017 10:51 PM CDT
Local time Thursday, October 19, 2017 11:56 PM CDT
Flight conditions Visual Meteorological Conditions
Winds
Wind direction South-Southeast (150°)
Wind speed 3 mph
Visibility 10 mi.
Sky condition
Ceiling unlimited
Cloud layer scattered clouds 25,000 ft.
Temperature 54°F
Dewpoint 39°F
Altimeter 30.15 in.Hg
Derived measurements
Relative humidity 57%
Density altitude 193 ft.
Sea-level pressure 30.15 in.Hg
Remarks
Automated weather observing station with precipitation discriminator.
METAR KORD 200351Z 15003KT 10SM SCT250 12/04 A3015 RMK AO2 SLP210 T01220039

Settings

Location code

InnerDrive.Weather 4.0.6144.1 Release CLR 4.0.30319.36366
Copyright ©2015 Inner Drive Technology. All rights reserved. Portions Copyright ©1986-2015 David Braverman.

Find weather

Site navigation


Skip Navigation Links

Place info

Page info

PayPal - The safer, easier way to pay online!

Return home.

Copyright ©2017 Inner Drive Technology. Purveyors of fine, hand-crafted computer software. Page printed 2017-10-20T04:56:15 UTC.